Webster, IA (52355)

10:47 PM CDT on July 11, 2014 (GMT -0500)
Dietze Weather Station (KIAMILLE3) Elev 883 ft | 41.57 °N, 92.16 °W | Change Station

Current weather conditions updated 1 second ago

Clear
Clear
73.6 °F
Feels Like 72 °F
N
1.8
Wind Variable Wind from ESE
Gusts 2.7 mph

Tomorrow is forecast to be Warmer than today. Scattered thunderstorms possible.

Today
High -- | Low -- °F
--% Chance of Precip.
Yesterday
High -- | Low -- °F
Precip. -- in
5:45 AM 8:43 PM
Full, 100% visible
Pressure 30.04 in
Visibility 7.0 miles
Clouds Clear
Heat Index 72 °F
Dew Point 71 °F
Humidity 90%
Rainfall 0.02 in
Snow Depth Not available.
UV 0 out of 12
Pollen .60 out of 12
Air Quality Not available.
Flu Activity Sporadic
METAR KOOA 120335Z AUTO 11005KT 7SM CLR 23/22 A3004 RMK AO2 T02280218

More Conditions Fewer Conditions

Pressure 30.04 in
Visibility 7.0 miles
Clouds Clear
Heat Index 72 °F
Dew Point 71 °F
Humidity 90%
Rainfall 0.02 in
Snow Depth Not available.
UV 0 out of 12
Pollen .60 out of 12
Air Quality Not available.
Flu Activity Sporadic
METAR KOOA 120335Z AUTO 11005KT 7SM CLR 23/22 A3004 RMK AO2 T02280218

More Conditions Fewer Conditions

10-Day Weather Forecast

Almanac

Astronomy

Jul. 11, 2014 Rise Set
Actual Time 5:45 AM CDT 8:43 PM CDT
Civil Twilight 5:11 AM CDT 9:16 PM CDT
Nautical Twilight 4:29 AM CDT 9:58 PM CDT
Astronomical Twilight 3:40 AM CDT 10:47 PM CDT
Moon 7:52 PM CDT (7/11) 4:58 AM CDT (7/11)
Length of Visible Light 16h 04m
Length of Day
14h 57m
Tomorrow will be 1m 14s shorter.
Full, 100% of the Moon is Illuminated
Today
Full
Jul 12
Full
Jul 18
Last Quarter
Jul 26
New
Aug 3
First Quarter

Today's Extremes

State Highs State Lows

Community

WunderPhotos

Upload Photos

1,732,682 photos uploaded!

Nearby

Snow Depth

Station Depth Elevation
No new snow has been reported.

Earthquake Activity

City Distance Mag. Time & Date
No recent earthquake activity has been reported nearby.
Minimum magnitude displayed is 2.5.

Coastal Water Temperatures

Place Temperature
No Stations Reporting

Nearby Weather Stations

Station Location Temp. Heat Index Dew Point Humidity Wind Precip. Elev Updated Type
IADOT Sigourney (IA 92), Delta, IA 74 °F 72 °F 72 °F 93% East  at  3 mph 0.00 in / hr 666 ft 9:20 PM CDT MADIS
Dietze Weather Station, Millersburg, IA 73.6 °F 72 °F 71 °F 90% ESE  at  1.8 mph 0.00 in / hr 883 ft 10:47 PM CDT Rapid Fire
Williamsburg South, Williamsburg, IA 71.8 °F - 70 °F 94% SSE  at  2.2 mph 0.00 in / hr 879 ft 10:47 PM CDT Rapid Fire
Williamsburg, IA 73.2 °F 74 °F 66 °F 78% WSW  at  0.0 mph 0.00 in / hr 820 ft 10:47 PM CDT Rapid Fire

Show More Stations Show Fewer Stations